createdAt,value
2019-02-15T00:01:31.095Z,79504.79
2019-02-15T00:04:02.446Z,79502.78
2019-02-15T00:06:33.734Z,79502.78
2019-02-15T00:09:06.165Z,79501.77
2019-02-15T00:11:37.446Z,79513.84
2019-02-15T00:14:08.725Z,79502.78
2019-02-15T00:16:40.015Z,79494.73
2019-02-15T00:19:29.981Z,79486.68
2019-02-15T00:22:01.538Z,79482.66
2019-02-15T00:24:32.802Z,79489.70
2019-02-15T00:27:04.050Z,79488.69
2019-02-15T00:29:35.376Z,79490.70
2019-02-15T00:32:06.657Z,79500.77
2019-02-15T00:34:37.957Z,79499.75
2019-02-15T00:37:09.520Z,79490.70
2019-02-15T00:39:40.762Z,79490.70
2019-02-15T00:42:12.023Z,79482.66
2019-02-15T00:44:43.333Z,79478.63
2019-02-15T00:47:42.431Z,79483.66
2019-02-15T00:50:38.604Z,79482.66
2019-02-15T00:53:25.353Z,79484.67
2019-02-15T00:56:07.957Z,79489.70
2019-02-15T00:58:57.316Z,79484.67
2019-02-15T01:01:56.251Z,79486.68
2019-02-15T01:04:52.258Z,79486.68
2019-02-15T01:07:41.376Z,79478.63
2019-02-15T01:10:34.418Z,79487.69
2019-02-15T01:13:12.042Z,79484.67
2019-02-15T01:15:43.293Z,79483.66
2019-02-15T01:18:14.594Z,79487.69
2019-02-15T01:20:45.764Z,79497.74
2019-02-15T01:23:17.041Z,79485.67
2019-02-15T01:26:09.788Z,79478.63
2019-02-15T01:28:56.645Z,79475.61
2019-02-15T01:31:49.677Z,79477.63
2019-02-15T01:34:31.509Z,79490.70
2019-02-15T01:37:15.506Z,79471.59
2019-02-15T01:39:57.670Z,79483.66
2019-02-15T01:42:50.551Z,79472.59
2019-02-15T01:45:25.239Z,79486.68
2019-02-15T01:47:56.397Z,79480.64
2019-02-15T01:50:27.690Z,79488.69
2019-02-15T01:52:58.976Z,79475.61
2019-02-15T01:55:30.283Z,79491.70
2019-02-15T01:58:01.582Z,79482.66
2019-02-15T02:00:36.057Z,79491.70
2019-02-15T02:03:07.320Z,79487.69
2019-02-15T02:05:38.571Z,79480.64
2019-02-15T02:08:12.808Z,79457.51
2019-02-15T02:10:44.186Z,79476.62
2019-02-15T02:13:15.635Z,79459.52
2019-02-15T02:15:46.831Z,79472.59
2019-02-15T02:18:18.116Z,79442.42
2019-02-15T02:20:49.434Z,79433.36
2019-02-15T02:23:20.758Z,79446.44
2019-02-15T02:25:51.994Z,79451.47
2019-02-15T02:28:23.315Z,79458.52
2019-02-15T02:30:54.586Z,79454.48
2019-02-15T02:33:25.890Z,79448.45
2019-02-15T02:35:57.194Z,79454.48
2019-02-15T02:38:28.443Z,79459.52
2019-02-15T02:40:59.765Z,79471.59
2019-02-15T02:43:31.328Z,79435.38
2019-02-15T02:46:02.691Z,79414.25
2019-02-15T02:48:33.948Z,79430.34
2019-02-15T02:51:05.203Z,79411.23
2019-02-15T02:53:36.558Z,79424.31
2019-02-15T02:56:07.857Z,79424.31
2019-02-15T02:58:39.161Z,79446.44
2019-02-15T03:01:10.451Z,79455.50
2019-02-15T03:03:41.697Z,79460.53
2019-02-15T03:06:12.986Z,79457.51
2019-02-15T03:08:44.186Z,79472.59
2019-02-15T03:11:15.453Z,79440.41
2019-02-15T03:13:46.717Z,79450.47
2019-02-15T03:16:18.027Z,79471.59
2019-02-15T03:18:49.376Z,79482.66
2019-02-15T03:21:20.700Z,79494.73
2019-02-15T03:23:51.946Z,79487.69
2019-02-15T03:26:23.127Z,79488.69
2019-02-15T03:28:54.370Z,79492.72
2019-02-15T03:31:25.651Z,79497.74
2019-02-15T03:33:56.917Z,79495.73
2019-02-15T03:36:49.672Z,79510.82
2019-02-15T03:39:28.506Z,79505.80
2019-02-15T03:41:59.783Z,79522.89
2019-02-15T03:44:31.088Z,79538.98
2019-02-15T03:47:02.383Z,79550.05
2019-02-15T03:49:33.693Z,79557.09
2019-02-15T03:52:04.939Z,79565.14
2019-02-15T03:54:36.370Z,79532.95
2019-02-15T03:57:07.677Z,79527.92
2019-02-15T03:59:39.187Z,79509.81
2019-02-15T04:02:10.553Z,79521.89
2019-02-15T04:04:41.816Z,79518.87
2019-02-15T04:07:13.111Z,79533.95
2019-02-15T04:09:44.380Z,79542.00
2019-02-15T04:12:15.708Z,79547.04
2019-02-15T04:14:46.854Z,79547.04
2019-02-15T04:17:18.154Z,79548.05
2019-02-15T04:19:49.478Z,79546.03
2019-02-15T04:22:20.753Z,79552.06
2019-02-15T04:24:52.068Z,79559.11
2019-02-15T04:27:23.355Z,79561.12
2019-02-15T04:29:54.560Z,79572.19
2019-02-15T04:32:25.838Z,79582.24
2019-02-15T04:34:57.095Z,79595.33
2019-02-15T04:37:28.371Z,79602.36
2019-02-15T04:39:59.690Z,79599.34
2019-02-15T04:42:30.964Z,79604.38
2019-02-15T04:45:02.254Z,79613.43
2019-02-15T04:47:33.593Z,79602.36
2019-02-15T04:50:04.963Z,79611.42
2019-02-15T04:52:36.362Z,79612.42
2019-02-15T04:55:08.083Z,79619.47
2019-02-15T04:57:39.513Z,79613.43
2019-02-15T05:00:10.961Z,79616.45
2019-02-15T05:02:42.270Z,79627.52
2019-02-15T05:05:13.540Z,79631.53
2019-02-15T05:07:44.778Z,79631.53
2019-02-15T05:10:16.057Z,79626.51
2019-02-15T05:12:47.376Z,79617.45
2019-02-15T05:15:18.658Z,79622.48
2019-02-15T05:17:49.857Z,79617.45
2019-02-15T05:20:21.219Z,79624.50
2019-02-15T05:22:52.475Z,79624.50
2019-02-15T05:25:23.788Z,79615.44
2019-02-15T05:27:55.047Z,79618.46
2019-02-15T05:30:26.328Z,79626.51
2019-02-15T05:32:57.636Z,79618.46
2019-02-15T05:35:28.951Z,79621.48
2019-02-15T05:38:00.243Z,79632.55
2019-02-15T05:40:31.641Z,79630.53
2019-02-15T05:43:03.436Z,79625.50
2019-02-15T05:45:34.773Z,79631.53
2019-02-15T05:48:06.055Z,79637.58
2019-02-15T05:50:37.388Z,79646.63
2019-02-15T05:53:08.615Z,79645.63
2019-02-15T05:55:39.952Z,79642.60
2019-02-15T05:58:11.212Z,79642.60
2019-02-15T06:00:42.485Z,79649.64
2019-02-15T06:03:13.956Z,79651.66
2019-02-15T06:05:45.247Z,79650.65
2019-02-15T06:08:16.553Z,79648.64
2019-02-15T06:10:47.828Z,79656.69
2019-02-15T06:13:19.267Z,79663.73
2019-02-15T06:15:50.556Z,79658.70
2019-02-15T06:18:21.856Z,79666.75
2019-02-15T06:20:53.192Z,79662.72
2019-02-15T06:23:43.493Z,79671.78
2019-02-15T06:26:14.745Z,79677.81
2019-02-15T06:28:47.780Z,79684.86
2019-02-15T06:31:22.180Z,79689.88
2019-02-15T06:33:53.515Z,79684.86
2019-02-15T06:36:26.353Z,79669.77
2019-02-15T06:38:57.606Z,79662.72
2019-02-15T06:41:28.872Z,79656.69
2019-02-15T06:44:00.193Z,79654.67
2019-02-15T06:46:31.509Z,79649.64
2019-02-15T06:49:02.887Z,79651.66
2019-02-15T06:51:34.051Z,79657.70
2019-02-15T06:54:05.321Z,79661.72
2019-02-15T06:56:36.621Z,79658.70
2019-02-15T06:59:26.151Z,79659.70
2019-02-15T07:02:07.745Z,79655.68
2019-02-15T07:05:12.837Z,79650.65
2019-02-15T07:07:44.210Z,79645.63
2019-02-15T07:10:15.456Z,79632.55
2019-02-15T07:12:46.796Z,79627.52
2019-02-15T07:15:18.089Z,79616.45
2019-02-15T07:17:49.435Z,79614.44
2019-02-15T07:20:20.722Z,79607.39
2019-02-15T07:22:53.212Z,79598.34
2019-02-15T07:25:24.459Z,79592.30
2019-02-15T07:27:55.735Z,79586.27
2019-02-15T07:30:27.094Z,79575.20
2019-02-15T07:32:58.374Z,79575.20
2019-02-15T07:35:29.695Z,79564.14
2019-02-15T07:38:00.992Z,79548.05
2019-02-15T07:40:32.295Z,79538.98
2019-02-15T07:43:03.744Z,79519.88
2019-02-15T07:45:42.656Z,79498.75
2019-02-15T07:48:08.009Z,79476.62
2019-02-15T07:50:39.338Z,79457.51
2019-02-15T07:53:10.595Z,79444.43
2019-02-15T07:55:41.920Z,79427.33
2019-02-15T07:58:13.250Z,79403.19
2019-02-15T08:00:44.519Z,79383.07
2019-02-15T08:03:15.847Z,79363.95
2019-02-15T08:05:47.345Z,79342.83
2019-02-15T08:08:18.615Z,79290.53
2019-02-15T08:10:49.875Z,79176.87
2019-02-15T08:13:21.163Z,79064.21
2019-02-15T08:15:52.459Z,78931.45
2019-02-15T08:18:23.740Z,78807.73
2019-02-15T08:20:54.966Z,78687.05
2019-02-15T08:23:26.216Z,78625.70
2019-02-15T08:25:57.391Z,78512.06
2019-02-15T08:28:28.617Z,78432.62
2019-02-15T08:30:59.887Z,78349.16
2019-02-15T08:33:31.162Z,78274.73
2019-02-15T08:36:02.522Z,78226.47
2019-02-15T08:38:33.816Z,78150.05
2019-02-15T08:41:05.048Z,78114.86
2019-02-15T08:43:36.343Z,78080.67
2019-02-15T08:46:07.607Z,78017.32
2019-02-15T08:48:45.860Z,77998.22
2019-02-15T08:51:11.871Z,77966.05
2019-02-15T08:53:43.178Z,77950.96
2019-02-15T08:56:14.478Z,77913.75
2019-02-15T08:58:45.730Z,77899.68
2019-02-15T09:01:17.017Z,77877.56
2019-02-15T09:03:48.289Z,77886.61
2019-02-15T09:06:19.484Z,77875.55
2019-02-15T09:08:53.614Z,77823.27
2019-02-15T09:11:24.859Z,77808.18
2019-02-15T09:13:56.136Z,77774.00
2019-02-15T09:16:27.502Z,77742.83
2019-02-15T09:18:58.801Z,77758.91
2019-02-15T09:21:30.039Z,77730.77
2019-02-15T09:24:01.276Z,77745.84
2019-02-15T09:26:32.477Z,77683.52
2019-02-15T09:29:07.245Z,77690.55
2019-02-15T09:31:38.589Z,77649.33
2019-02-15T09:34:09.839Z,77663.41
2019-02-15T09:36:41.140Z,77730.77
2019-02-15T09:39:12.427Z,77779.02
2019-02-15T09:41:43.784Z,77889.63
2019-02-15T09:44:15.031Z,77889.63
2019-02-15T09:46:46.336Z,77959.00
2019-02-15T09:49:17.608Z,77980.12
2019-02-15T09:51:48.876Z,78030.39
2019-02-15T09:54:20.175Z,78033.41
2019-02-15T09:56:51.450Z,78021.34
2019-02-15T09:59:22.655Z,78042.46
2019-02-15T10:01:54.081Z,78059.55
2019-02-15T10:04:25.406Z,78075.64
2019-02-15T10:06:56.723Z,78082.68
2019-02-15T10:09:28.077Z,78070.61
2019-02-15T10:11:59.343Z,78066.59
2019-02-15T10:14:30.646Z,78040.45
2019-02-15T10:17:01.937Z,78040.45
2019-02-15T10:19:33.235Z,78031.40
2019-02-15T10:22:04.462Z,78027.38
2019-02-15T10:24:35.767Z,78020.34
2019-02-15T10:27:07.039Z,78009.28
2019-02-15T10:29:38.431Z,77997.21
2019-02-15T10:32:09.637Z,77996.20
2019-02-15T10:34:40.894Z,77983.13
2019-02-15T10:37:12.236Z,77987.16
2019-02-15T10:39:43.493Z,77984.14
2019-02-15T10:42:14.738Z,77972.08
2019-02-15T10:44:45.935Z,77978.11
2019-02-15T10:47:24.773Z,77953.98
2019-02-15T10:49:50.049Z,77935.88
2019-02-15T10:52:21.333Z,77925.83
2019-02-15T10:54:52.590Z,77882.59
2019-02-15T10:57:23.855Z,77874.55
2019-02-15T10:59:55.032Z,77795.11
2019-02-15T11:02:26.339Z,77784.05
2019-02-15T11:04:57.602Z,77780.03
2019-02-15T11:07:28.891Z,77770.98
2019-02-15T11:10:00.140Z,77746.85
2019-02-15T11:12:31.481Z,77703.62
2019-02-15T11:15:02.750Z,77705.63
2019-02-15T11:17:34.063Z,77653.34
2019-02-15T11:20:05.550Z,77655.36
2019-02-15T11:22:36.827Z,77620.17
2019-02-15T11:25:09.824Z,77616.15
2019-02-15T11:27:41.423Z,77611.13
2019-02-15T11:30:14.731Z,77586.99
2019-02-15T11:32:46.066Z,77591.02
2019-02-15T11:35:17.309Z,77590.01
2019-02-15T11:37:48.626Z,77577.94
2019-02-15T11:40:19.878Z,77540.74
2019-02-15T11:42:51.084Z,77558.84
2019-02-15T11:45:22.260Z,77555.83
2019-02-15T11:47:53.431Z,77544.77
2019-02-15T11:50:24.726Z,77537.73
2019-02-15T11:52:55.955Z,77544.77
2019-02-15T11:55:27.256Z,77517.63
2019-02-15T11:57:58.507Z,77501.53
2019-02-15T12:00:48.795Z,77487.46
2019-02-15T12:03:20.053Z,77476.40
2019-02-15T12:05:51.340Z,77454.28
2019-02-15T12:08:22.590Z,77459.31
2019-02-15T12:10:53.853Z,77448.25
2019-02-15T12:13:25.172Z,77447.25
2019-02-15T12:15:56.423Z,77437.20
2019-02-15T12:18:27.643Z,77437.20
2019-02-15T12:20:58.910Z,77441.22
2019-02-15T12:23:30.213Z,77421.11
2019-02-15T12:26:01.490Z,77424.13
2019-02-15T12:28:32.752Z,77425.13
2019-02-15T12:31:04.106Z,77422.11
2019-02-15T12:33:35.359Z,77408.04
2019-02-15T12:36:06.588Z,77388.94
2019-02-15T12:38:37.900Z,77364.81
2019-02-15T12:41:09.143Z,77366.82
2019-02-15T12:43:40.350Z,77360.79
2019-02-15T12:46:11.601Z,77336.66
2019-02-15T12:48:42.913Z,77337.66
2019-02-15T12:51:14.203Z,77337.66
2019-02-15T12:53:45.415Z,77348.73
2019-02-15T12:56:16.607Z,77353.75
2019-02-15T12:58:49.447Z,77347.72
2019-02-15T13:01:20.810Z,77344.70
2019-02-15T13:03:52.062Z,77364.81
2019-02-15T13:06:28.645Z,77342.69
2019-02-15T13:08:56.248Z,77312.53
2019-02-15T13:11:27.555Z,77335.66
2019-02-15T13:13:58.878Z,77309.52
2019-02-15T13:16:30.224Z,77310.52
2019-02-15T13:19:01.549Z,77292.42
2019-02-15T13:21:32.817Z,77304.49
2019-02-15T13:24:04.031Z,77301.48
2019-02-15T13:26:35.323Z,77299.47
2019-02-15T13:29:06.662Z,77292.42
2019-02-15T13:31:37.923Z,77281.38
2019-02-15T13:34:09.285Z,77275.34
2019-02-15T13:36:40.578Z,77245.18
2019-02-15T13:39:12.025Z,77236.13
2019-02-15T13:41:43.324Z,77214.02
2019-02-15T13:44:14.587Z,77225.08
2019-02-15T13:46:45.862Z,77223.06
2019-02-15T13:49:17.127Z,77213.02
2019-02-15T13:51:48.481Z,77212.01
2019-02-15T13:54:19.717Z,77214.02
2019-02-15T13:56:50.985Z,77189.89
2019-02-15T13:59:22.275Z,77210.00
2019-02-15T14:01:54.605Z,77207.98
2019-02-15T14:04:25.904Z,77174.81
2019-02-15T14:06:58.379Z,77156.72
2019-02-15T14:09:29.654Z,77179.84
2019-02-15T14:12:02.963Z,77181.84
2019-02-15T14:14:33.930Z,77135.61
2019-02-15T14:17:05.376Z,77148.67
2019-02-15T14:19:36.657Z,77141.64
2019-02-15T14:22:08.016Z,77133.59
2019-02-15T14:24:39.346Z,77145.66
2019-02-15T14:27:10.646Z,77137.62
2019-02-15T14:29:41.884Z,77165.77
2019-02-15T14:32:13.175Z,77161.74
2019-02-15T14:34:44.474Z,77120.53
2019-02-15T14:37:15.748Z,77144.66
2019-02-15T14:39:47.083Z,77130.58
2019-02-15T14:42:18.238Z,77129.58
2019-02-15T14:44:49.548Z,77163.75
2019-02-15T14:47:20.719Z,77164.76
2019-02-15T14:49:52.005Z,77164.76
2019-02-15T14:52:23.363Z,77146.66
2019-02-15T14:54:54.598Z,77149.68
2019-02-15T14:57:25.852Z,77151.69
2019-02-15T14:59:57.198Z,77143.65
2019-02-15T15:02:28.476Z,77155.71
2019-02-15T15:04:59.694Z,77149.68
2019-02-15T15:07:31.019Z,77140.63
2019-02-15T15:10:02.289Z,77159.73
2019-02-15T15:12:33.563Z,77180.84
2019-02-15T15:15:05.067Z,77176.82
2019-02-15T15:17:36.361Z,77187.88
2019-02-15T15:20:09.376Z,77223.06
2019-02-15T15:22:40.695Z,77230.09
2019-02-15T15:25:12.869Z,77245.18
2019-02-15T15:27:44.199Z,77254.23
2019-02-15T15:30:15.600Z,77263.27
2019-02-15T15:32:46.856Z,77270.31
2019-02-15T15:35:18.189Z,77283.38
2019-02-15T15:37:49.444Z,77303.48
2019-02-15T15:40:20.715Z,77311.53
2019-02-15T15:42:51.942Z,77324.59
2019-02-15T15:45:23.271Z,77333.64
2019-02-15T15:47:54.531Z,77332.64
2019-02-15T15:50:25.850Z,77332.64
2019-02-15T15:52:57.125Z,77323.59
2019-02-15T15:55:28.373Z,77316.55
2019-02-15T15:57:59.678Z,77307.51
2019-02-15T16:00:38.642Z,77309.52
2019-02-15T16:03:04.078Z,77295.44
2019-02-15T16:05:35.381Z,77297.45
2019-02-15T16:08:06.646Z,77306.50
2019-02-15T16:10:38.012Z,77323.59
2019-02-15T16:13:09.373Z,77339.67
2019-02-15T16:15:40.667Z,77354.76
2019-02-15T16:18:11.972Z,77379.89
2019-02-15T16:20:43.278Z,77405.02
2019-02-15T16:23:14.700Z,77420.10
2019-02-15T16:25:46.217Z,77448.25
2019-02-15T16:28:17.512Z,77472.38
2019-02-15T16:30:48.818Z,77493.49
2019-02-15T16:33:20.190Z,77522.65
2019-02-15T16:35:51.489Z,77540.74
2019-02-15T16:38:22.776Z,77554.82
2019-02-15T16:40:54.084Z,77588.00
2019-02-15T16:43:25.514Z,77618.16
2019-02-15T16:45:56.915Z,77636.26
2019-02-15T16:48:28.196Z,77635.25
2019-02-15T16:50:59.462Z,77666.42
2019-02-15T16:53:30.818Z,77676.47
2019-02-15T16:56:02.194Z,77694.56
2019-02-15T16:58:33.625Z,77720.70
2019-02-15T17:01:04.930Z,77742.83
2019-02-15T17:03:36.171Z,77762.94
2019-02-15T17:06:07.557Z,77785.05
2019-02-15T17:08:39.150Z,77815.22
2019-02-15T17:11:10.501Z,77852.42
2019-02-15T17:13:41.875Z,77853.42
2019-02-15T17:16:13.174Z,77863.48
2019-02-15T17:18:51.337Z,77854.44
2019-02-15T17:21:17.500Z,77847.39
2019-02-15T17:23:48.817Z,77876.55
2019-02-15T17:26:20.148Z,77912.75
2019-02-15T17:28:51.485Z,77901.69
2019-02-15T17:31:22.837Z,77903.70
2019-02-15T17:33:54.134Z,77931.86
2019-02-15T17:36:25.533Z,77913.75
2019-02-15T17:38:57.089Z,77932.86
2019-02-15T17:41:28.485Z,77941.91
2019-02-15T17:43:59.842Z,77941.91
2019-02-15T17:46:31.146Z,77948.95
2019-02-15T17:49:03.409Z,77953.98
2019-02-15T17:51:34.752Z,77970.06
2019-02-15T17:54:06.103Z,77986.15
2019-02-15T17:56:37.322Z,78001.23
2019-02-15T17:59:08.613Z,78014.30
2019-02-15T18:01:39.962Z,78014.30
2019-02-15T18:04:11.472Z,78029.39
2019-02-15T18:06:42.767Z,78013.30
2019-02-15T18:09:14.071Z,78026.38
2019-02-15T18:11:45.369Z,78045.48
2019-02-15T18:14:16.695Z,78064.58
2019-02-15T18:16:48.157Z,78071.62
2019-02-15T18:19:19.454Z,78081.67
2019-02-15T18:21:50.776Z,78082.68
2019-02-15T18:24:22.049Z,78094.75
2019-02-15T18:26:53.444Z,78106.81
2019-02-15T18:29:24.762Z,78100.78
2019-02-15T18:31:56.066Z,78090.72
2019-02-15T18:34:27.560Z,78086.70
2019-02-15T18:36:58.962Z,78093.73
2019-02-15T18:39:30.427Z,78084.69
2019-02-15T18:42:01.740Z,78084.69
2019-02-15T18:44:33.275Z,78090.72
2019-02-15T18:47:04.989Z,78096.76
2019-02-15T18:49:36.623Z,78091.73
2019-02-15T18:52:08.181Z,78091.73
2019-02-15T18:54:39.629Z,78089.72
2019-02-15T18:57:11.440Z,78097.77
2019-02-15T18:59:46.290Z,78110.84
2019-02-15T19:02:18.218Z,78115.86
2019-02-15T19:04:49.618Z,78125.92
2019-02-15T19:07:21.010Z,78132.95
2019-02-15T19:09:52.498Z,78143.02
2019-02-15T19:12:23.782Z,78151.06
2019-02-15T19:14:55.157Z,78154.08
2019-02-15T19:17:26.557Z,78167.14
2019-02-15T19:19:57.983Z,78178.20
2019-02-15T19:22:29.358Z,78194.30
2019-02-15T19:25:00.703Z,78211.39
2019-02-15T19:27:32.150Z,78213.41
2019-02-15T19:30:03.997Z,78217.42
2019-02-15T19:32:35.339Z,78229.48
2019-02-15T19:35:07.516Z,78228.48
2019-02-15T19:37:39.061Z,78237.53
2019-02-15T19:40:12.853Z,78231.50
2019-02-15T19:42:46.644Z,78245.58
2019-02-15T19:45:18.145Z,78240.55
2019-02-15T19:47:49.555Z,78249.60
2019-02-15T19:50:21.037Z,78255.64
2019-02-15T19:52:52.581Z,78272.73
2019-02-15T19:55:24.003Z,78268.70
2019-02-15T19:57:55.423Z,78276.75
2019-02-15T20:00:26.948Z,78276.75
2019-02-15T20:02:58.367Z,78278.77
2019-02-15T20:05:29.641Z,78292.84
2019-02-15T20:08:01.111Z,78303.91
2019-02-15T20:10:32.575Z,78300.89
2019-02-15T20:13:04.002Z,78297.87
2019-02-15T20:15:35.437Z,78310.94
2019-02-15T20:18:06.876Z,78313.95
2019-02-15T20:20:38.271Z,78315.97
2019-02-15T20:23:09.570Z,78316.97
2019-02-15T20:25:40.948Z,78328.04
2019-02-15T20:28:14.259Z,78319.99
2019-02-15T20:30:45.659Z,78337.09
2019-02-15T20:33:17.056Z,78357.20
2019-02-15T20:35:48.531Z,78368.27
2019-02-15T20:38:21.511Z,78368.27
2019-02-15T20:40:52.800Z,78374.30
2019-02-15T20:43:24.404Z,78374.30
2019-02-15T20:45:55.864Z,78381.33
2019-02-15T20:48:27.392Z,78373.29
2019-02-15T20:50:58.810Z,78376.30
2019-02-15T20:53:30.063Z,78362.23
2019-02-15T20:56:01.517Z,78367.26
2019-02-15T20:58:33.026Z,78371.28
2019-02-15T21:01:04.454Z,78380.33
2019-02-15T21:03:35.823Z,78378.31
2019-02-15T21:06:07.378Z,78383.34
2019-02-15T21:08:38.733Z,78360.22
2019-02-15T21:11:10.032Z,78374.30
2019-02-15T21:13:41.369Z,78353.17
2019-02-15T21:16:12.611Z,78384.34
2019-02-15T21:18:43.962Z,78385.36
2019-02-15T21:21:15.298Z,78402.45
2019-02-15T21:23:46.649Z,78405.47
2019-02-15T21:26:17.913Z,78420.55
2019-02-15T21:28:49.809Z,78423.57
2019-02-15T21:31:21.017Z,78446.70
2019-02-15T21:33:52.352Z,78436.64
2019-02-15T21:36:23.685Z,78434.63
2019-02-15T21:38:54.962Z,78444.69
2019-02-15T21:41:26.271Z,78455.75
2019-02-15T21:43:57.565Z,78455.75
2019-02-15T21:46:28.918Z,78457.77
2019-02-15T21:49:00.228Z,78475.86
2019-02-15T21:51:31.524Z,78494.97
2019-02-15T21:54:02.884Z,78489.94
2019-02-15T21:56:34.232Z,78502.02
2019-02-15T21:59:05.592Z,78488.94
2019-02-15T22:01:36.949Z,78481.90
2019-02-15T22:04:08.251Z,78462.79
2019-02-15T22:06:39.584Z,78460.78
2019-02-15T22:09:11.446Z,78490.95
2019-02-15T22:11:42.880Z,78517.09
2019-02-15T22:14:14.249Z,78532.18
2019-02-15T22:16:45.579Z,78532.18
2019-02-15T22:19:16.896Z,78529.16
2019-02-15T22:21:48.263Z,78528.16
2019-02-15T22:24:19.575Z,78516.09
2019-02-15T22:26:50.979Z,78516.09
2019-02-15T22:29:22.403Z,78535.20
2019-02-15T22:31:53.721Z,78546.26
2019-02-15T22:34:25.593Z,78569.39
2019-02-15T22:36:56.928Z,78572.41
2019-02-15T22:39:28.113Z,78566.38
2019-02-15T22:41:59.399Z,78543.23
2019-02-15T22:44:30.715Z,78498.99
2019-02-15T22:47:02.079Z,78537.20
2019-02-15T22:49:43.096Z,78563.35
2019-02-15T22:52:06.504Z,78561.34
2019-02-15T22:54:37.791Z,78575.42
2019-02-15T22:57:09.124Z,78603.58
2019-02-15T22:59:40.464Z,78598.55
2019-02-15T23:02:13.588Z,78594.53
2019-02-15T23:04:44.888Z,78588.50
2019-02-15T23:07:18.794Z,78585.48
2019-02-15T23:09:50.254Z,78586.48
2019-02-15T23:12:21.509Z,78596.55
2019-02-15T23:14:52.862Z,78602.58
2019-02-15T23:17:24.367Z,78606.59
2019-02-15T23:19:55.926Z,78616.66
2019-02-15T23:22:27.261Z,78613.64
2019-02-15T23:24:58.472Z,78606.59
2019-02-15T23:27:29.847Z,78609.61
2019-02-15T23:30:01.202Z,78624.70
2019-02-15T23:32:32.515Z,78624.70
2019-02-15T23:35:03.869Z,78631.73
2019-02-15T23:37:35.202Z,78645.82
2019-02-15T23:40:06.653Z,78629.73
2019-02-15T23:42:38.843Z,78633.75
2019-02-15T23:45:10.054Z,78642.80
2019-02-15T23:47:44.163Z,78645.82
2019-02-15T23:50:15.443Z,78651.85
2019-02-15T23:52:46.748Z,78630.73
2019-02-15T23:55:18.362Z,78649.84
2019-02-15T23:57:49.629Z,78650.84
